sensor_id;sensor_type;location;lat;lon;timestamp;pressure;altitude;pressure_sealevel;temperature;humidity
59859;BME280;45734;53.648;9.566;2022-08-03T00:03:18;101459.31;;;19.52;100.00
59859;BME280;45734;53.648;9.566;2022-08-03T00:08:19;101459.28;;;19.45;100.00
59859;BME280;45734;53.648;9.566;2022-08-03T00:13:19;101457.38;;;19.39;100.00
59859;BME280;45734;53.648;9.566;2022-08-03T00:18:20;101450.91;;;19.34;100.00
59859;BME280;45734;53.648;9.566;2022-08-03T00:23:20;101446.34;;;19.34;100.00
59859;BME280;45734;53.648;9.566;2022-08-03T00:28:21;101438.47;;;19.39;100.00
59859;BME280;45734;53.648;9.566;2022-08-03T00:33:21;101439.91;;;19.35;100.00
59859;BME280;45734;53.648;9.566;2022-08-03T00:38:22;101431.41;;;19.38;100.00
59859;BME280;45734;53.648;9.566;2022-08-03T00:43:25;101435.34;;;19.36;100.00
59859;BME280;45734;53.648;9.566;2022-08-03T00:48:28;101432.19;;;19.26;100.00
59859;BME280;45734;53.648;9.566;2022-08-03T00:53:28;101434.44;;;19.22;100.00
59859;BME280;45734;53.648;9.566;2022-08-03T00:58:29;101429.88;;;19.16;100.00
59859;BME280;45734;53.648;9.566;2022-08-03T01:03:29;101428.38;;;19.07;100.00
59859;BME280;45734;53.648;9.566;2022-08-03T01:08:38;101424.19;;;18.97;100.00
59859;BME280;45734;53.648;9.566;2022-08-03T01:14:03;101433.91;;;18.92;100.00
59859;BME280;45734;53.648;9.566;2022-08-03T01:25:18;101426.38;;;18.81;100.00
59859;BME280;45734;53.648;9.566;2022-08-03T01:30:28;101430.00;;;18.73;100.00
59859;BME280;45734;53.648;9.566;2022-08-03T01:35:36;101434.56;;;18.66;100.00
59859;BME280;45734;53.648;9.566;2022-08-03T01:40:39;101434.31;;;18.61;100.00
59859;BME280;45734;53.648;9.566;2022-08-03T01:45:42;101435.91;;;18.55;100.00
59859;BME280;45734;53.648;9.566;2022-08-03T01:50:44;101424.25;;;18.48;100.00
59859;BME280;45734;53.648;9.566;2022-08-03T01:55:47;101424.84;;;18.43;100.00
59859;BME280;45734;53.648;9.566;2022-08-03T02:00:49;101419.97;;;18.32;100.00
59859;BME280;45734;53.648;9.566;2022-08-03T02:05:51;101422.63;;;18.25;100.00
59859;BME280;45734;53.648;9.566;2022-08-03T02:10:56;101422.59;;;18.19;100.00
59859;BME280;45734;53.648;9.566;2022-08-03T02:15:57;101428.75;;;18.13;100.00
59859;BME280;45734;53.648;9.566;2022-08-03T02:21:00;101430.50;;;17.99;100.00
59859;BME280;45734;53.648;9.566;2022-08-03T02:26:03;101428.06;;;17.82;100.00
59859;BME280;45734;53.648;9.566;2022-08-03T02:31:11;101426.88;;;17.70;100.00
59859;BME280;45734;53.648;9.566;2022-08-03T02:36:13;101424.22;;;17.55;100.00
59859;BME280;45734;53.648;9.566;2022-08-03T02:41:17;101422.13;;;17.36;100.00
59859;BME280;45734;53.648;9.566;2022-08-03T02:46:23;101416.97;;;17.19;100.00
59859;BME280;45734;53.648;9.566;2022-08-03T02:51:27;101404.38;;;17.05;100.00
59859;BME280;45734;53.648;9.566;2022-08-03T02:56:29;101411.63;;;16.90;100.00
59859;BME280;45734;53.648;9.566;2022-08-03T03:01:30;101405.69;;;16.80;100.00
59859;BME280;45734;53.648;9.566;2022-08-03T03:06:31;101409.94;;;16.74;100.00
59859;BME280;45734;53.648;9.566;2022-08-03T03:11:33;101406.94;;;16.69;100.00
59859;BME280;45734;53.648;9.566;2022-08-03T03:16:35;101414.03;;;16.70;100.00
59859;BME280;45734;53.648;9.566;2022-08-03T03:21:36;101417.72;;;16.69;100.00
59859;BME280;45734;53.648;9.566;2022-08-03T03:26:37;101412.09;;;16.79;100.00
59859;BME280;45734;53.648;9.566;2022-08-03T03:31:37;101418.94;;;16.81;100.00
59859;BME280;45734;53.648;9.566;2022-08-03T03:36:39;101421.09;;;16.86;100.00
59859;BME280;45734;53.648;9.566;2022-08-03T03:41:39;101420.72;;;16.89;100.00
59859;BME280;45734;53.648;9.566;2022-08-03T03:46:40;101421.53;;;16.89;100.00
59859;BME280;45734;53.648;9.566;2022-08-03T03:51:40;101410.53;;;16.99;100.00
59859;BME280;45734;53.648;9.566;2022-08-03T03:56:40;101417.06;;;17.26;100.00
59859;BME280;45734;53.648;9.566;2022-08-03T04:01:41;101405.16;;;17.57;100.00
59859;BME280;45734;53.648;9.566;2022-08-03T04:06:42;101403.34;;;18.00;100.00
59859;BME280;45734;53.648;9.566;2022-08-03T04:12:01;101410.88;;;18.33;100.00
59859;BME280;45734;53.648;9.566;2022-08-03T04:17:04;101401.97;;;19.02;100.00
59859;BME280;45734;53.648;9.566;2022-08-03T04:22:08;101406.63;;;19.96;100.00
59859;BME280;45734;53.648;9.566;2022-08-03T04:27:11;101409.88;;;20.85;100.00
59859;BME280;45734;53.648;9.566;2022-08-03T04:32:13;101403.81;;;22.04;100.00
59859;BME280;45734;53.648;9.566;2022-08-03T04:37:43;101415.44;;;23.17;100.00
59859;BME280;45734;53.648;9.566;2022-08-03T04:42:42;101417.19;;;24.25;98.25
59859;BME280;45734;53.648;9.566;2022-08-03T04:47:43;101424.13;;;25.15;92.12
59859;BME280;45734;53.648;9.566;2022-08-03T04:52:44;101423.75;;;25.97;87.30
59859;BME280;45734;53.648;9.566;2022-08-03T04:57:44;101420.84;;;26.72;82.96
59859;BME280;45734;53.648;9.566;2022-08-03T05:02:45;101423.63;;;27.43;78.06
59859;BME280;45734;53.648;9.566;2022-08-03T05:07:45;101423.53;;;28.19;71.53
59859;BME280;45734;53.648;9.566;2022-08-03T05:12:46;101427.22;;;28.77;68.04
59859;BME280;45734;53.648;9.566;2022-08-03T05:17:47;101428.59;;;28.85;65.64
59859;BME280;45734;53.648;9.566;2022-08-03T05:22:48;101429.56;;;28.58;65.83
59859;BME280;45734;53.648;9.566;2022-08-03T05:27:48;101430.38;;;28.54;66.96
59859;BME280;45734;53.648;9.566;2022-08-03T05:32:48;101428.84;;;28.78;65.78
59859;BME280;45734;53.648;9.566;2022-08-03T05:37:48;101427.16;;;29.35;65.89
59859;BME280;45734;53.648;9.566;2022-08-03T05:42:49;101423.44;;;29.72;63.61
59859;BME280;45734;53.648;9.566;2022-08-03T05:47:50;101423.13;;;30.19;62.56
59859;BME280;45734;53.648;9.566;2022-08-03T05:52:54;101431.88;;;30.73;60.19
59859;BME280;45734;53.648;9.566;2022-08-03T05:57:56;101420.81;;;30.98;57.44
59859;BME280;45734;53.648;9.566;2022-08-03T06:02:57;101418.44;;;30.61;58.44
59859;BME280;45734;53.648;9.566;2022-08-03T06:07:57;101411.78;;;30.82;59.95
59859;BME280;45734;53.648;9.566;2022-08-03T06:12:57;101416.75;;;30.75;57.50
59859;BME280;45734;53.648;9.566;2022-08-03T06:17:58;101410.41;;;30.75;59.51
59859;BME280;45734;53.648;9.566;2022-08-03T06:22:58;101415.56;;;31.51;57.88
59859;BME280;45734;53.648;9.566;2022-08-03T06:27:59;101418.03;;;31.53;56.52
59859;BME280;45734;53.648;9.566;2022-08-03T06:32:59;101411.28;;;32.09;54.38
59859;BME280;45734;53.648;9.566;2022-08-03T06:38:00;101426.28;;;32.56;52.78
59859;BME280;45734;53.648;9.566;2022-08-03T06:43:01;101423.00;;;33.02;54.89
59859;BME280;45734;53.648;9.566;2022-08-03T06:48:04;101424.34;;;33.42;53.97
59859;BME280;45734;53.648;9.566;2022-08-03T06:53:05;101430.13;;;33.97;50.79
59859;BME280;45734;53.648;9.566;2022-08-03T06:58:06;101435.34;;;34.32;49.70
59859;BME280;45734;53.648;9.566;2022-08-03T07:03:06;101429.16;;;34.81;48.77
59859;BME280;45734;53.648;9.566;2022-08-03T07:08:07;101442.47;;;34.93;45.06
59859;BME280;45734;53.648;9.566;2022-08-03T07:13:07;101428.09;;;35.19;43.78
59859;BME280;45734;53.648;9.566;2022-08-03T07:18:07;101433.78;;;35.50;44.65
59859;BME280;45734;53.648;9.566;2022-08-03T07:23:08;101434.13;;;35.71;45.32
59859;BME280;45734;53.648;9.566;2022-08-03T07:28:08;101437.56;;;34.90;44.81
59859;BME280;45734;53.648;9.566;2022-08-03T07:33:09;101437.59;;;33.97;47.65
59859;BME280;45734;53.648;9.566;2022-08-03T07:38:09;101446.81;;;34.25;48.34
59859;BME280;45734;53.648;9.566;2022-08-03T07:43:09;101442.88;;;34.59;47.04
59859;BME280;45734;53.648;9.566;2022-08-03T07:48:10;101444.75;;;34.63;48.09
59859;BME280;45734;53.648;9.566;2022-08-03T07:53:10;101442.84;;;34.31;47.11
59859;BME280;45734;53.648;9.566;2022-08-03T07:58:11;101437.47;;;34.07;49.94
59859;BME280;45734;53.648;9.566;2022-08-03T08:03:15;101439.91;;;34.41;48.08
59859;BME280;45734;53.648;9.566;2022-08-03T08:08:15;101443.50;;;34.69;45.95
59859;BME280;45734;53.648;9.566;2022-08-03T08:13:16;101446.56;;;34.96;46.04
59859;BME280;45734;53.648;9.566;2022-08-03T08:18:17;101445.78;;;35.09;46.45
59859;BME280;45734;53.648;9.566;2022-08-03T08:23:17;101450.16;;;35.24;45.78
59859;BME280;45734;53.648;9.566;2022-08-03T08:28:22;101441.84;;;34.96;46.72
59859;BME280;45734;53.648;9.566;2022-08-03T08:33:22;101439.84;;;34.88;48.19
59859;BME280;45734;53.648;9.566;2022-08-03T08:38:23;101437.72;;;34.52;47.35
59859;BME280;45734;53.648;9.566;2022-08-03T08:43:23;101441.50;;;34.29;48.23
59859;BME280;45734;53.648;9.566;2022-08-03T08:48:24;101436.16;;;34.18;49.63
59859;BME280;45734;53.648;9.566;2022-08-03T08:53:27;101437.19;;;33.90;49.11
59859;BME280;45734;53.648;9.566;2022-08-03T08:58:31;101437.34;;;33.79;49.18
59859;BME280;45734;53.648;9.566;2022-08-03T09:03:33;101441.47;;;33.63;48.82
59859;BME280;45734;53.648;9.566;2022-08-03T09:08:34;101439.22;;;33.46;49.98
59859;BME280;45734;53.648;9.566;2022-08-03T09:13:34;101435.47;;;33.37;50.01
59859;BME280;45734;53.648;9.566;2022-08-03T09:18:35;101437.25;;;33.47;49.48
59859;BME280;45734;53.648;9.566;2022-08-03T09:23:53;101435.09;;;33.44;48.72
59859;BME280;45734;53.648;9.566;2022-08-03T09:29:08;101437.78;;;33.11;48.00
59859;BME280;45734;53.648;9.566;2022-08-03T09:34:11;101427.41;;;33.22;51.01
59859;BME280;45734;53.648;9.566;2022-08-03T09:39:16;101432.16;;;33.16;48.33
59859;BME280;45734;53.648;9.566;2022-08-03T09:44:16;101424.09;;;33.01;49.38
59859;BME280;45734;53.648;9.566;2022-08-03T09:49:17;101426.16;;;32.66;51.24
59859;BME280;45734;53.648;9.566;2022-08-03T09:54:31;101426.03;;;32.52;52.39
59859;BME280;45734;53.648;9.566;2022-08-03T09:59:32;101420.22;;;32.24;52.36
59859;BME280;45734;53.648;9.566;2022-08-03T10:04:33;101418.59;;;31.89;52.83
59859;BME280;45734;53.648;9.566;2022-08-03T10:09:34;101414.06;;;31.69;56.10
59859;BME280;45734;53.648;9.566;2022-08-03T10:14:37;101418.34;;;31.86;54.76
59859;BME280;45734;53.648;9.566;2022-08-03T10:19:38;101414.53;;;32.16;55.73
59859;BME280;45734;53.648;9.566;2022-08-03T10:24:48;101402.09;;;32.47;56.11
59859;BME280;45734;53.648;9.566;2022-08-03T10:29:55;101409.09;;;32.64;52.65
59859;BME280;45734;53.648;9.566;2022-08-03T10:35:06;101403.91;;;32.28;52.53
59859;BME280;45734;53.648;9.566;2022-08-03T10:40:09;101414.31;;;31.73;54.00
59859;BME280;45734;53.648;9.566;2022-08-03T10:45:17;101411.25;;;31.30;55.60
59859;BME280;45734;53.648;9.566;2022-08-03T10:50:18;101410.66;;;31.43;58.73
59859;BME280;45734;53.648;9.566;2022-08-03T10:55:32;101403.63;;;31.66;54.93
59859;BME280;45734;53.648;9.566;2022-08-03T11:00:51;101405.66;;;31.50;55.54
59859;BME280;45734;53.648;9.566;2022-08-03T11:05:51;101415.53;;;31.56;57.15
59859;BME280;45734;53.648;9.566;2022-08-03T11:11:23;101416.22;;;31.77;56.26
59859;BME280;45734;53.648;9.566;2022-08-03T11:16:28;101409.50;;;31.89;54.24
59859;BME280;45734;53.648;9.566;2022-08-03T11:42:55;101405.53;;;31.21;54.68
59859;BME280;45734;53.648;9.566;2022-08-03T11:47:56;101405.03;;;31.58;56.62
59859;BME280;45734;53.648;9.566;2022-08-03T11:52:59;101412.50;;;31.97;55.79
59859;BME280;45734;53.648;9.566;2022-08-03T11:57:59;101407.50;;;32.29;53.37
59859;BME280;45734;53.648;9.566;2022-08-03T12:03:05;101411.13;;;32.53;53.83
59859;BME280;45734;53.648;9.566;2022-08-03T12:08:08;101401.09;;;32.62;51.69
59859;BME280;45734;53.648;9.566;2022-08-03T12:13:08;101405.28;;;32.31;53.62
59859;BME280;45734;53.648;9.566;2022-08-03T12:18:16;101399.09;;;32.15;53.17
59859;BME280;45734;53.648;9.566;2022-08-03T12:23:18;101389.56;;;32.02;55.06
59859;BME280;45734;53.648;9.566;2022-08-03T12:28:19;101385.91;;;32.12;54.32
59859;BME280;45734;53.648;9.566;2022-08-03T12:33:26;101383.16;;;32.12;54.87
59859;BME280;45734;53.648;9.566;2022-08-03T12:38:27;101389.63;;;32.26;53.98
59859;BME280;45734;53.648;9.566;2022-08-03T12:43:27;101384.75;;;32.42;53.00
59859;BME280;45734;53.648;9.566;2022-08-03T12:48:27;101380.19;;;32.32;52.63
59859;BME280;45734;53.648;9.566;2022-08-03T12:53:28;101373.09;;;32.26;54.18
59859;BME280;45734;53.648;9.566;2022-08-03T12:58:31;101386.84;;;31.97;53.37
59859;BME280;45734;53.648;9.566;2022-08-03T13:03:43;101380.69;;;31.76;52.34
59859;BME280;45734;53.648;9.566;2022-08-03T13:08:44;101385.13;;;31.72;54.13
59859;BME280;45734;53.648;9.566;2022-08-03T13:13:47;101378.66;;;31.92;53.75
59859;BME280;45734;53.648;9.566;2022-08-03T13:18:48;101376.91;;;32.01;52.94
59859;BME280;45734;53.648;9.566;2022-08-03T13:23:48;101385.13;;;32.06;52.79
59859;BME280;45734;53.648;9.566;2022-08-03T13:28:49;101376.75;;;32.16;52.82
59859;BME280;45734;53.648;9.566;2022-08-03T13:33:49;101378.59;;;32.26;53.91
59859;BME280;45734;53.648;9.566;2022-08-03T13:38:49;101378.84;;;32.30;52.08
59859;BME280;45734;53.648;9.566;2022-08-03T13:43:50;101376.59;;;32.32;56.64
59859;BME280;45734;53.648;9.566;2022-08-03T13:48:50;101374.19;;;32.25;54.89
59859;BME280;45734;53.648;9.566;2022-08-03T13:53:50;101370.00;;;32.04;52.43
59859;BME280;45734;53.648;9.566;2022-08-03T13:58:51;101365.97;;;31.91;53.28
59859;BME280;45734;53.648;9.566;2022-08-03T14:03:52;101357.44;;;31.87;54.04
59859;BME280;45734;53.648;9.566;2022-08-03T14:08:53;101361.66;;;31.79;55.82
59859;BME280;45734;53.648;9.566;2022-08-03T14:13:55;101368.06;;;31.70;52.53
59859;BME280;45734;53.648;9.566;2022-08-03T14:18:55;101363.03;;;31.48;55.26
59859;BME280;45734;53.648;9.566;2022-08-03T14:23:56;101360.31;;;31.43;57.20
59859;BME280;45734;53.648;9.566;2022-08-03T14:28:56;101356.94;;;31.51;55.56
59859;BME280;45734;53.648;9.566;2022-08-03T14:33:56;101354.44;;;31.54;57.33
59859;BME280;45734;53.648;9.566;2022-08-03T14:38:57;101358.22;;;31.64;57.98
59859;BME280;45734;53.648;9.566;2022-08-03T14:43:57;101358.41;;;31.72;53.69
59859;BME280;45734;53.648;9.566;2022-08-03T14:48:58;101352.09;;;31.72;53.50
59859;BME280;45734;53.648;9.566;2022-08-03T14:53:58;101349.94;;;31.64;52.48
59859;BME280;45734;53.648;9.566;2022-08-03T14:58:58;101343.31;;;31.65;52.76
59859;BME280;45734;53.648;9.566;2022-08-03T15:03:59;101343.38;;;31.60;52.52
59859;BME280;45734;53.648;9.566;2022-08-03T15:09:00;101333.66;;;31.33;53.58
59859;BME280;45734;53.648;9.566;2022-08-03T15:14:00;101346.31;;;30.84;53.35
59859;BME280;45734;53.648;9.566;2022-08-03T15:19:01;101331.47;;;30.80;56.27
59859;BME280;45734;53.648;9.566;2022-08-03T15:24:01;101342.66;;;30.99;53.84
59859;BME280;45734;53.648;9.566;2022-08-03T15:29:02;101328.25;;;31.12;57.34
59859;BME280;45734;53.648;9.566;2022-08-03T15:34:02;101331.00;;;31.18;56.54
59859;BME280;45734;53.648;9.566;2022-08-03T15:39:04;101339.81;;;31.15;53.28
59859;BME280;45734;53.648;9.566;2022-08-03T15:44:04;101336.03;;;31.05;53.70
59859;BME280;45734;53.648;9.566;2022-08-03T15:49:05;101327.06;;;30.89;54.04
59859;BME280;45734;53.648;9.566;2022-08-03T15:54:05;101323.84;;;30.67;58.32
59859;BME280;45734;53.648;9.566;2022-08-03T15:59:06;101323.28;;;30.60;60.10
59859;BME280;45734;53.648;9.566;2022-08-03T16:04:06;101335.41;;;30.59;58.14
59859;BME280;45734;53.648;9.566;2022-08-03T16:09:07;101331.91;;;30.43;58.22
59859;BME280;45734;53.648;9.566;2022-08-03T16:14:09;101338.81;;;30.30;57.85
59859;BME280;45734;53.648;9.566;2022-08-03T16:19:09;101336.34;;;30.23;57.93
59859;BME280;45734;53.648;9.566;2022-08-03T16:24:09;101335.50;;;30.28;60.26
59859;BME280;45734;53.648;9.566;2022-08-03T16:29:09;101331.63;;;30.39;59.70
59859;BME280;45734;53.648;9.566;2022-08-03T16:34:10;101329.66;;;30.50;58.51
59859;BME280;45734;53.648;9.566;2022-08-03T16:39:10;101331.59;;;30.50;57.54
59859;BME280;45734;53.648;9.566;2022-08-03T16:44:10;101328.88;;;30.44;58.63
59859;BME280;45734;53.648;9.566;2022-08-03T16:49:11;101328.66;;;30.26;58.63
59859;BME280;45734;53.648;9.566;2022-08-03T16:54:11;101327.03;;;30.09;58.71
59859;BME280;45734;53.648;9.566;2022-08-03T16:59:12;101331.44;;;29.95;59.79
59859;BME280;45734;53.648;9.566;2022-08-03T17:04:13;101339.97;;;29.73;59.61
59859;BME280;45734;53.648;9.566;2022-08-03T17:09:15;101341.88;;;29.47;62.23
59859;BME280;45734;53.648;9.566;2022-08-03T17:14:20;101338.00;;;29.27;63.11
59859;BME280;45734;53.648;9.566;2022-08-03T17:19:24;101344.00;;;29.19;62.13
59859;BME280;45734;53.648;9.566;2022-08-03T17:24:33;101341.78;;;29.11;62.73
59859;BME280;45734;53.648;9.566;2022-08-03T17:29:37;101340.09;;;29.00;62.76
59859;BME280;45734;53.648;9.566;2022-08-03T17:34:42;101346.38;;;28.80;66.94
59859;BME280;45734;53.648;9.566;2022-08-03T17:39:43;101346.47;;;28.42;69.62
59859;BME280;45734;53.648;9.566;2022-08-03T17:44:44;101344.28;;;28.02;73.60
59859;BME280;45734;53.648;9.566;2022-08-03T17:49:45;101354.59;;;27.63;78.31
59859;BME280;45734;53.648;9.566;2022-08-03T18:00:03;101356.13;;;26.77;85.18
59859;BME280;45734;53.648;9.566;2022-08-03T18:05:24;101370.06;;;26.54;84.15
59859;BME280;45734;53.648;9.566;2022-08-03T18:10:30;101372.78;;;26.37;85.93
59859;BME280;45734;53.648;9.566;2022-08-03T18:15:48;101377.78;;;26.06;90.27
59859;BME280;45734;53.648;9.566;2022-08-03T18:20:51;101390.72;;;25.65;94.57
59859;BME280;45734;53.648;9.566;2022-08-03T18:25:54;101385.00;;;25.21;96.89
59859;BME280;45734;53.648;9.566;2022-08-03T18:30:54;101388.06;;;24.84;99.66
59859;BME280;45734;53.648;9.566;2022-08-03T18:35:56;101393.31;;;24.51;100.00
59859;BME280;45734;53.648;9.566;2022-08-03T18:40:57;101390.09;;;24.18;100.00
59859;BME280;45734;53.648;9.566;2022-08-03T18:46:02;101396.69;;;23.99;100.00
59859;BME280;45734;53.648;9.566;2022-08-03T18:51:09;101404.22;;;23.73;100.00
59859;BME280;45734;53.648;9.566;2022-08-03T19:06:40;101422.09;;;23.02;100.00
59859;BME280;45734;53.648;9.566;2022-08-03T19:11:45;101417.22;;;22.86;100.00
59859;BME280;45734;53.648;9.566;2022-08-03T19:16:55;101425.53;;;22.73;100.00
59859;BME280;45734;53.648;9.566;2022-08-03T19:21:57;101436.53;;;22.59;100.00
59859;BME280;45734;53.648;9.566;2022-08-03T19:26:58;101433.50;;;22.49;100.00
59859;BME280;45734;53.648;9.566;2022-08-03T19:32:00;101439.66;;;22.38;100.00
59859;BME280;45734;53.648;9.566;2022-08-03T19:37:01;101440.63;;;22.25;100.00
59859;BME280;45734;53.648;9.566;2022-08-03T19:42:05;101444.84;;;22.14;100.00
59859;BME280;45734;53.648;9.566;2022-08-03T19:47:31;101449.91;;;22.04;100.00
59859;BME280;45734;53.648;9.566;2022-08-03T19:52:35;101445.19;;;21.93;100.00
59859;BME280;45734;53.648;9.566;2022-08-03T19:57:37;101446.31;;;21.85;100.00
59859;BME280;45734;53.648;9.566;2022-08-03T20:02:39;101447.19;;;21.79;100.00
59859;BME280;45734;53.648;9.566;2022-08-03T20:07:40;101450.97;;;21.72;100.00
59859;BME280;45734;53.648;9.566;2022-08-03T20:12:42;101437.91;;;21.62;100.00
59859;BME280;45734;53.648;9.566;2022-08-03T20:17:43;101435.66;;;21.52;100.00
59859;BME280;45734;53.648;9.566;2022-08-03T20:22:45;101448.41;;;21.45;100.00
59859;BME280;45734;53.648;9.566;2022-08-03T20:27:50;101453.03;;;21.38;100.00
59859;BME280;45734;53.648;9.566;2022-08-03T20:32:56;101450.31;;;21.31;100.00
59859;BME280;45734;53.648;9.566;2022-08-03T20:37:56;101459.53;;;21.23;100.00
59859;BME280;45734;53.648;9.566;2022-08-03T20:42:57;101457.47;;;21.19;100.00
59859;BME280;45734;53.648;9.566;2022-08-03T20:47:59;101458.09;;;21.14;100.00
59859;BME280;45734;53.648;9.566;2022-08-03T20:53:01;101470.84;;;21.07;100.00
59859;BME280;45734;53.648;9.566;2022-08-03T20:58:03;101475.41;;;21.00;100.00
59859;BME280;45734;53.648;9.566;2022-08-03T21:03:03;101467.56;;;20.92;100.00
59859;BME280;45734;53.648;9.566;2022-08-03T21:08:06;101476.28;;;20.87;100.00
59859;BME280;45734;53.648;9.566;2022-08-03T21:13:26;101478.81;;;20.82;100.00
59859;BME280;45734;53.648;9.566;2022-08-03T21:18:29;101486.31;;;20.73;100.00
59859;BME280;45734;53.648;9.566;2022-08-03T21:23:31;101475.91;;;20.64;100.00
59859;BME280;45734;53.648;9.566;2022-08-03T21:28:34;101481.78;;;20.54;100.00
59859;BME280;45734;53.648;9.566;2022-08-03T21:33:35;101477.38;;;20.40;100.00
59859;BME280;45734;53.648;9.566;2022-08-03T21:38:35;101480.28;;;20.25;100.00
59859;BME280;45734;53.648;9.566;2022-08-03T21:43:35;101480.66;;;20.02;100.00
59859;BME280;45734;53.648;9.566;2022-08-03T21:48:38;101482.94;;;19.92;100.00
59859;BME280;45734;53.648;9.566;2022-08-03T21:53:39;101479.16;;;19.73;100.00
59859;BME280;45734;53.648;9.566;2022-08-03T21:58:48;101474.94;;;19.63;100.00
59859;BME280;45734;53.648;9.566;2022-08-03T22:03:54;101479.28;;;19.58;100.00
59859;BME280;45734;53.648;9.566;2022-08-03T22:08:54;101482.59;;;19.53;100.00
59859;BME280;45734;53.648;9.566;2022-08-03T22:13:54;101477.19;;;19.53;100.00
59859;BME280;45734;53.648;9.566;2022-08-03T22:18:55;101477.41;;;19.58;100.00
59859;BME280;45734;53.648;9.566;2022-08-03T22:23:57;101480.31;;;19.57;100.00
59859;BME280;45734;53.648;9.566;2022-08-03T22:28:58;101484.00;;;19.42;100.00
59859;BME280;45734;53.648;9.566;2022-08-03T22:33:59;101482.34;;;19.41;100.00
59859;BME280;45734;53.648;9.566;2022-08-03T22:39:00;101485.91;;;19.07;100.00
59859;BME280;45734;53.648;9.566;2022-08-03T22:44:01;101485.16;;;18.85;100.00
59859;BME280;45734;53.648;9.566;2022-08-03T22:49:02;101486.78;;;18.80;100.00
59859;BME280;45734;53.648;9.566;2022-08-03T22:54:02;101481.13;;;18.74;100.00
59859;BME280;45734;53.648;9.566;2022-08-03T22:59:03;101488.19;;;18.75;100.00
59859;BME280;45734;53.648;9.566;2022-08-03T23:04:05;101489.00;;;18.76;100.00
59859;BME280;45734;53.648;9.566;2022-08-03T23:09:08;101483.38;;;18.71;100.00
59859;BME280;45734;53.648;9.566;2022-08-03T23:14:11;101474.63;;;18.69;100.00
59859;BME280;45734;53.648;9.566;2022-08-03T23:19:14;101475.66;;;18.68;100.00
59859;BME280;45734;53.648;9.566;2022-08-03T23:24:14;101473.75;;;18.62;100.00
59859;BME280;45734;53.648;9.566;2022-08-03T23:29:16;101472.22;;;18.52;100.00
59859;BME280;45734;53.648;9.566;2022-08-03T23:34:17;101460.81;;;18.29;100.00
59859;BME280;45734;53.648;9.566;2022-08-03T23:39:37;101459.44;;;18.33;100.00
59859;BME280;45734;53.648;9.566;2022-08-03T23:44:41;101458.09;;;18.50;100.00
59859;BME280;45734;53.648;9.566;2022-08-03T23:49:42;101466.59;;;18.75;100.00
